Terminal Aerodrome Forecast
Issued by NWS Sioux Falls, SD

Home | Current Version | Previous Version | Text Only | Print | Product List | Glossary Off
Versions: 1 2 3 4 5 6 7 8 9 10 11 12 13 14 15 16 17 18

000
FTUS43 KFSD 260036 AAA
TAFHON
TAF AMD
KHON 260036Z 2601/2624 20007KT 5SM TSRA BR SCT050CB
     FM260130 22004KT P6SM SCT120
     FM261500 28009KT P6SM FEW040
     FM262000 24007KT P6SM SCT200=

USA.gov is the U.S. government's official web portal to all federal, state and local government web resources and services.